Time;durP1;ratioP1;P1;durP2;ratioP2;P2;SDS_P1;SDS_P2;PMS_P1;PMS_P2;Temp;Humidity;BMP_temperature;BMP_pressure;BME280_temperature;BME280_humidity;BME280_pressure;Samples;Min_cycle;Max_cycle;Signal;HPM_P1;HPM_P2
2023/07/03 00:00:06;;;;;;;27.48;21.98;;;14.60;70.00;;;;;;5057334;28;20436;-75
2023/07/03 00:02:32;;;;;;;22.13;19.80;;;14.40;70.60;;;;;;5078500;28;20032;-76
2023/07/03 00:04:58;;;;;;;22.55;20.27;;;14.40;71.20;;;;;;5073525;28;20079;-75
2023/07/03 00:07:23;;;;;;;22.75;19.98;;;14.30;71.00;;;;;;5077764;28;20057;-74
2023/07/03 00:09:49;;;;;;;23.50;20.30;;;14.20;71.70;;;;;;5077943;28;20070;-75
2023/07/03 00:12:15;;;;;;;21.52;19.30;;;14.30;71.60;;;;;;5076349;28;20029;-74
2023/07/03 00:14:41;;;;;;;21.10;18.90;;;14.30;71.00;;;;;;5077091;28;20034;-75
2023/07/03 00:17:10;;;;;;;23.15;20.85;;;14.40;70.80;;;;;;5074954;28;20506;-74
2023/07/03 00:19:36;;;;;;;24.48;20.40;;;14.50;70.60;;;;;;5091114;28;20036;-74
2023/07/03 00:22:02;;;;;;;24.13;19.48;;;14.50;70.50;;;;;;5076079;28;20397;-74
2023/07/03 00:24:30;;;;;;;21.70;19.88;;;14.60;69.80;;;;;;5072391;28;20501;-74
2023/07/03 00:26:56;;;;;;;24.52;21.95;;;14.50;69.10;;;;;;5076966;28;20131;-74
2023/07/03 00:29:22;;;;;;;22.08;20.08;;;14.50;68.50;;;;;;5074722;28;20074;-74
2023/07/03 00:31:48;;;;;;;23.80;21.52;;;14.50;68.90;;;;;;5073430;28;20036;-74
2023/07/03 00:34:13;;;;;;;21.15;19.00;;;14.50;68.30;;;;;;5078749;28;20029;-74
2023/07/03 00:36:39;;;;;;;22.10;20.05;;;14.60;68.60;;;;;;5072939;28;20167;-75
2023/07/03 00:39:05;;;;;;;22.25;20.20;;;14.70;68.10;;;;;;5082024;28;20032;-74
2023/07/03 00:41:31;;;;;;;24.20;21.95;;;14.70;67.30;;;;;;5082622;28;20036;-75
2023/07/03 00:43:57;;;;;;;20.30;18.40;;;14.80;66.20;;;;;;5082220;28;20465;-75
2023/07/03 00:46:24;;;;;;;21.08;18.77;;;15.00;64.90;;;;;;5080022;28;20132;-74
2023/07/03 00:48:50;;;;;;;24.23;22.15;;;15.10;64.00;;;;;;5094446;28;20539;-73
2023/07/03 00:51:16;;;;;;;22.92;20.88;;;15.10;66.50;;;;;;5077379;28;20063;-74
2023/07/03 00:53:42;;;;;;;23.35;21.13;;;15.10;67.50;;;;;;5064784;28;20078;-74
2023/07/03 00:56:08;;;;;;;23.92;21.98;;;15.10;67.00;;;;;;5078756;28;20091;-74
2023/07/03 00:58:34;;;;;;;21.23;19.25;;;15.20;66.90;;;;;;5082055;28;20033;-74
2023/07/03 01:01:10;;;;;;;22.02;19.92;;;15.10;69.60;;;;;;5082186;28;20043;-75
2023/07/03 01:03:40;;;;;;;22.52;20.30;;;15.20;69.70;;;;;;5077292;28;20468;-75
2023/07/03 01:06:15;;;;;;;23.90;21.60;;;15.10;68.70;;;;;;5082684;28;20028;-74
2023/07/03 01:08:41;;;;;;;23.77;21.73;;;15.10;66.90;;;;;;5081917;28;20307;-75
2023/07/03 01:11:08;;;;;;;24.10;21.67;;;15.10;68.30;;;;;;5080096;28;20035;-74
2023/07/03 01:13:36;;;;;;;25.27;22.67;;;14.90;69.00;;;;;;5080464;28;20043;-74
2023/07/03 01:16:05;;;;;;;26.30;23.75;;;15.10;67.50;;;;;;5078523;28;20029;-75
2023/07/03 01:18:50;;;;;;;22.58;20.40;;;15.10;67.90;;;;;;5079676;28;20086;-74
2023/07/03 01:21:23;;;;;;;25.52;22.88;;;15.10;68.90;;;;;;5081767;28;20119;-74
2023/07/03 01:23:55;;;;;;;27.65;20.52;;;15.10;69.00;;;;;;5062380;28;20136;-75
2023/07/03 01:26:21;;;;;;;24.20;21.10;;;15.10;70.40;;;;;;5077662;28;20028;-74
2023/07/03 01:28:54;;;;;;;24.02;20.65;;;15.20;70.10;;;;;;5083371;28;20028;-75
2023/07/03 01:31:21;;;;;;;25.90;23.42;;;15.20;69.40;;;;;;5082281;28;20040;-75
2023/07/03 01:33:47;;;;;;;24.30;22.20;;;15.20;69.40;;;;;;5082405;28;20086;-75
2023/07/03 01:36:15;;;;;;;24.27;20.40;;;15.10;69.10;;;;;;5076192;28;20085;-75
2023/07/03 01:38:46;;;;;;;24.77;22.52;;;15.20;69.90;;;;;;5080525;28;20115;-74
2023/07/03 01:41:15;;;;;;;22.25;20.23;;;15.20;69.70;;;;;;5079342;28;20051;-75
2023/07/03 01:43:43;;;;;;;23.75;20.13;;;15.20;70.90;;;;;;5079236;28;20036;-74
2023/07/03 01:46:09;;;;;;;24.02;21.63;;;15.20;71.90;;;;;;5082913;28;20035;-75
2023/07/03 01:48:36;;;;;;;24.52;21.92;;;15.20;70.60;;;;;;5077554;28;20032;-74
2023/07/03 01:51:03;;;;;;;22.45;20.38;;;15.20;71.00;;;;;;5076692;28;20025;-74
2023/07/03 01:53:48;;;;;;;23.23;20.83;;;15.30;71.40;;;;;;5072000;28;20028;-75
2023/07/03 01:56:20;;;;;;;23.75;21.02;;;15.20;70.40;;;;;;5078172;28;20545;-74
2023/07/03 01:58:52;;;;;;;23.95;21.05;;;15.30;70.50;;;;;;5077519;28;20039;-74
2023/07/03 02:01:27;;;;;;;21.58;19.38;;;15.30;69.90;;;;;;5074094;28;20078;-75
2023/07/03 02:03:58;;;;;;;27.75;21.13;;;15.30;70.70;;;;;;5081136;28;20410;-75
2023/07/03 02:06:33;;;;;;;26.23;19.75;;;15.30;71.60;;;;;;5056700;28;20450;-74
2023/07/03 02:09:01;;;;;;;25.70;21.33;;;15.30;73.80;;;;;;5077448;28;20027;-74
2023/07/03 02:11:28;;;;;;;23.35;20.73;;;15.30;74.90;;;;;;5082208;28;20548;-75
2023/07/03 02:13:54;;;;;;;25.48;21.95;;;15.10;75.90;;;;;;5074766;28;20028;-75
2023/07/03 02:16:20;;;;;;;25.77;21.25;;;15.10;75.70;;;;;;5078061;28;20036;-75
2023/07/03 02:18:46;;;;;;;22.80;20.50;;;15.10;74.30;;;;;;5076106;28;20094;-74
2023/07/03 02:21:13;;;;;;;25.17;20.92;;;15.10;73.70;;;;;;5078366;28;20070;-74
2023/07/03 02:23:40;;;;;;;23.88;21.58;;;15.10;73.50;;;;;;5082698;28;20051;-73
2023/07/03 02:26:06;;;;;;;27.70;21.60;;;15.10;73.70;;;;;;5080186;28;20028;-75
2023/07/03 02:28:32;;;;;;;25.73;22.90;;;15.10;74.00;;;;;;5074112;28;20765;-73
2023/07/03 02:30:57;;;;;;;23.58;21.25;;;15.10;72.40;;;;;;5079903;28;20036;-72
2023/07/03 02:33:23;;;;;;;23.70;20.42;;;15.10;73.10;;;;;;5073354;28;20108;-74
2023/07/03 02:35:49;;;;;;;23.48;20.95;;;15.00;73.60;;;;;;5061445;28;20103;-74
2023/07/03 02:38:15;;;;;;;24.45;21.88;;;14.90;72.90;;;;;;5091520;28;20027;-75
2023/07/03 02:40:41;;;;;;;25.92;23.60;;;14.90;71.70;;;;;;5078275;28;20060;-74
2023/07/03 02:43:08;;;;;;;24.02;21.50;;;14.90;71.70;;;;;;5076444;28;20141;-74
2023/07/03 02:45:37;;;;;;;25.05;22.55;;;14.80;72.10;;;;;;5072569;28;20506;-74
2023/07/03 02:48:03;;;;;;;24.67;21.80;;;14.80;72.10;;;;;;5058569;28;20478;-75
2023/07/03 02:50:29;;;;;;;25.75;22.75;;;14.80;72.50;;;;;;5074452;28;20035;-75
2023/07/03 02:52:54;;;;;;;25.33;22.30;;;14.80;71.20;;;;;;5055062;28;20031;-74
2023/07/03 02:55:20;;;;;;;25.75;22.88;;;14.80;71.20;;;;;;5093360;28;20039;-74
2023/07/03 02:57:46;;;;;;;24.02;21.77;;;14.80;71.00;;;;;;5072539;28;20701;-75
2023/07/03 03:00:13;;;;;;;23.00;20.60;;;14.80;71.30;;;;;;5073949;28;20029;-75
2023/07/03 03:02:38;;;;;;;22.90;20.35;;;14.80;71.80;;;;;;5072809;28;20039;-74
2023/07/03 03:05:05;;;;;;;24.95;21.23;;;14.80;72.10;;;;;;5074188;28;20123;-75
2023/07/03 03:07:31;;;;;;;23.73;21.35;;;14.80;72.10;;;;;;5073721;28;21146;-75
2023/07/03 03:09:56;;;;;;;23.75;21.30;;;14.70;71.90;;;;;;5075364;28;20028;-74
2023/07/03 03:12:22;;;;;;;22.98;20.80;;;14.80;72.10;;;;;;5068731;28;20036;-75
2023/07/03 03:14:48;;;;;;;22.92;20.85;;;14.80;71.80;;;;;;5056035;28;20039;-74
2023/07/03 03:17:14;;;;;;;23.63;21.27;;;14.70;72.10;;;;;;5074569;28;20040;-74
2023/07/03 03:19:40;;;;;;;22.52;20.27;;;14.80;71.70;;;;;;5073904;28;20498;-74
2023/07/03 03:22:05;;;;;;;22.98;20.83;;;14.80;71.50;;;;;;5058023;28;20085;-75
2023/07/03 03:24:31;;;;;;;23.10;20.55;;;14.80;71.10;;;;;;5076757;28;20138;-75
2023/07/03 03:26:56;;;;;;;24.75;21.92;;;14.80;71.50;;;;;;5077079;28;20502;-75
2023/07/03 03:29:22;;;;;;;22.92;20.67;;;14.80;71.40;;;;;;5074345;28;20115;-75
2023/07/03 03:31:48;;;;;;;23.48;21.13;;;14.80;71.20;;;;;;5087675;28;20025;-75
2023/07/03 03:34:14;;;;;;;22.50;20.05;;;14.80;71.70;;;;;;5055553;28;20028;-75
2023/07/03 03:36:39;;;;;;;24.77;20.63;;;14.80;71.50;;;;;;5074584;28;20650;-75
2023/07/03 03:39:06;;;;;;;21.73;19.42;;;14.90;72.00;;;;;;5070389;28;20094;-75
2023/07/03 03:41:31;;;;;;;20.48;18.60;;;14.90;71.80;;;;;;5078652;28;20751;-72
2023/07/03 03:43:57;;;;;;;20.45;18.58;;;14.90;72.50;;;;;;5074215;28;20040;-75
2023/07/03 03:46:23;;;;;;;22.88;20.73;;;14.90;70.90;;;;;;5075738;28;20131;-74
2023/07/03 03:48:48;;;;;;;23.77;21.45;;;14.90;70.10;;;;;;5076017;28;20626;-75
2023/07/03 03:51:14;;;;;;;22.15;20.30;;;14.90;69.90;;;;;;5073776;28;20033;-74
2023/07/03 03:53:40;;;;;;;20.95;18.95;;;14.90;70.30;;;;;;5077429;28;20122;-75
2023/07/03 03:56:05;;;;;;;24.88;20.80;;;14.90;71.20;;;;;;5072141;28;20403;-74
2023/07/03 03:58:35;;;;;;;22.90;20.48;;;15.00;72.30;;;;;;5075729;28;20036;-73
2023/07/03 04:01:01;;;;;;;25.90;18.88;;;15.00;70.90;;;;;;5070174;28;20024;-74
2023/07/03 04:03:26;;;;;;;21.25;18.60;;;15.10;72.40;;;;;;5072031;28;20509;-74
2023/07/03 04:05:52;;;;;;;21.83;19.67;;;15.00;73.30;;;;;;5076662;28;20112;-75
2023/07/03 04:08:18;;;;;;;21.98;18.48;;;15.00;73.00;;;;;;5075909;28;20845;-74
2023/07/03 04:10:43;;;;;;;22.00;19.65;;;15.10;74.00;;;;;;5070516;28;20395;-74
2023/07/03 04:13:11;;;;;;;20.52;18.42;;;15.10;73.00;;;;;;5078761;28;20488;-75
2023/07/03 04:15:51;;;;;;;22.17;19.88;;;15.10;73.80;;;;;;5073558;28;20036;-75
2023/07/03 04:18:17;;;;;;;24.17;20.58;;;15.10;72.30;;;;;;5070441;28;20040;-75
2023/07/03 04:20:43;;;;;;;22.92;20.83;;;15.10;71.20;;;;;;5073548;28;20116;-74
2023/07/03 04:23:08;;;;;;;22.40;19.70;;;15.20;71.50;;;;;;5053523;28;20131;-74
2023/07/03 04:25:35;;;;;;;23.40;20.35;;;15.20;71.90;;;;;;5078313;28;20455;-71
2023/07/03 04:28:01;;;;;;;22.70;20.48;;;15.10;71.80;;;;;;5076732;28;20109;-71
2023/07/03 04:30:27;;;;;;;27.52;21.08;;;15.20;71.60;;;;;;5073908;28;20375;-71
2023/07/03 04:32:53;;;;;;;22.42;20.33;;;15.20;71.60;;;;;;5077132;28;20029;-72
2023/07/03 04:35:19;;;;;;;23.77;21.52;;;15.20;71.50;;;;;;5072305;28;20041;-72
2023/07/03 04:37:45;;;;;;;22.42;19.65;;;15.20;73.10;;;;;;5076925;28;20434;-71
2023/07/03 04:40:12;;;;;;;20.98;19.27;;;15.30;73.10;;;;;;5074358;28;20063;-74
2023/07/03 04:42:40;;;;;;;20.70;18.80;;;15.40;71.60;;;;;;5072366;28;20090;-78
2023/07/03 04:45:07;;;;;;;21.73;19.48;;;15.40;73.10;;;;;;5072728;28;20037;-77
2023/07/03 04:47:32;;;;;;;23.63;21.23;;;15.30;72.40;;;;;;5070708;28;20097;-78
2023/07/03 04:49:58;;;;;;;20.80;18.85;;;15.40;73.60;;;;;;5070875;28;20494;-77
2023/07/03 04:52:27;;;;;;;22.85;19.70;;;15.50;72.30;;;;;;5071927;28;20798;-78
2023/07/03 04:54:53;;;;;;;20.65;18.65;;;15.40;73.40;;;;;;5071504;28;20036;-78
2023/07/03 04:57:19;;;;;;;20.42;18.42;;;15.50;73.40;;;;;;5074952;28;20086;-77
2023/07/03 04:59:45;;;;;;;21.98;19.63;;;15.60;73.50;;;;;;5073602;28;20035;-78
2023/07/03 05:02:12;;;;;;;22.05;19.83;;;15.50;73.00;;;;;;5070856;28;20036;-78
2023/07/03 05:04:38;;;;;;;22.92;20.50;;;15.60;72.00;;;;;;5076869;28;20115;-78
2023/07/03 05:07:04;;;;;;;20.98;17.92;;;15.60;73.00;;;;;;5088117;28;20124;-76
2023/07/03 05:09:29;;;;;;;22.08;19.77;;;15.60;74.10;;;;;;5034907;28;20103;-77
2023/07/03 05:11:55;;;;;;;22.40;20.17;;;15.70;73.20;;;;;;5059268;28;20460;-79
2023/07/03 05:14:21;;;;;;;25.25;19.67;;;15.80;73.40;;;;;;5054069;28;20446;-78
2023/07/03 05:16:46;;;;;;;20.55;18.40;;;15.80;72.50;;;;;;5070853;28;20060;-77
2023/07/03 05:19:13;;;;;;;53.03;38.20;;;15.80;71.90;;;;;;5087035;28;20039;-77
2023/07/03 05:21:39;;;;;;;29.17;20.33;;;15.90;71.90;;;;;;5071687;28;20041;-77
2023/07/03 05:24:06;;;;;;;20.98;18.88;;;16.00;72.10;;;;;;5069769;28;20049;-79
2023/07/03 05:26:31;;;;;;;20.80;18.65;;;15.90;72.70;;;;;;5073391;28;20556;-77
2023/07/03 05:28:57;;;;;;;20.45;18.40;;;15.90;72.20;;;;;;5078789;28;20036;-77
2023/07/03 05:31:23;;;;;;;21.27;18.98;;;16.00;71.80;;;;;;5076928;28;20055;-77
2023/07/03 05:33:50;;;;;;;20.13;18.33;;;15.90;71.40;;;;;;5089559;28;20051;-76
2023/07/03 05:36:15;;;;;;;19.15;17.20;;;16.00;71.20;;;;;;5074403;28;20747;-77
2023/07/03 05:38:41;;;;;;;19.70;17.60;;;15.90;71.70;;;;;;5076588;28;20093;-77
2023/07/03 05:41:07;;;;;;;21.75;19.58;;;16.10;71.40;;;;;;5093569;28;20122;-75
2023/07/03 05:43:32;;;;;;;21.10;18.05;;;16.10;71.40;;;;;;5078307;28;20028;-78
2023/07/03 05:45:58;;;;;;;18.63;16.83;;;16.10;71.80;;;;;;5077486;28;20692;-76
2023/07/03 05:48:24;;;;;;;20.40;18.38;;;16.30;71.50;;;;;;5074580;28;20756;-76
2023/07/03 05:50:50;;;;;;;24.65;19.50;;;16.40;71.60;;;;;;5081081;28;20031;-77
2023/07/03 05:53:15;;;;;;;18.73;16.85;;;16.40;69.90;;;;;;5074372;28;20029;-76
2023/07/03 05:55:41;;;;;;;23.23;18.08;;;16.40;70.00;;;;;;5075574;28;20028;-76
2023/07/03 05:58:08;;;;;;;18.38;16.77;;;16.40;69.70;;;;;;5091811;28;20048;-76
2023/07/03 06:00:34;;;;;;;19.42;17.63;;;16.40;69.50;;;;;;5072010;28;20033;-76
2023/07/03 06:03:02;;;;;;;19.00;17.40;;;16.40;69.40;;;;;;5081214;28;20027;-76
2023/07/03 06:05:27;;;;;;;21.27;17.67;;;16.50;69.80;;;;;;5072959;28;20098;-76
2023/07/03 06:07:53;;;;;;;20.25;18.15;;;16.60;70.10;;;;;;5076081;28;20134;-76
2023/07/03 06:10:19;;;;;;;19.40;17.60;;;16.60;68.70;;;;;;5072395;28;20048;-75
2023/07/03 06:12:44;;;;;;;22.40;17.45;;;16.70;69.00;;;;;;5089817;28;20063;-77
2023/07/03 06:15:10;;;;;;;21.95;17.10;;;16.80;69.80;;;;;;5073406;28;20036;-75
2023/07/03 06:17:37;;;;;;;20.73;17.15;;;16.80;68.90;;;;;;5075210;28;20028;-75
2023/07/03 06:20:04;;;;;;;17.50;15.75;;;16.90;68.80;;;;;;5073752;28;20115;-77
2023/07/03 06:22:30;;;;;;;21.88;17.42;;;16.90;68.20;;;;;;5086747;28;20056;-77
2023/07/03 06:24:55;;;;;;;24.80;17.98;;;17.00;67.50;;;;;;5089269;28;20036;-77
2023/07/03 06:27:21;;;;;;;18.70;16.52;;;17.10;69.30;;;;;;5076907;28;20052;-76
2023/07/03 06:29:47;;;;;;;23.83;17.15;;;17.20;67.40;;;;;;5079709;28;20490;-77
2023/07/03 06:32:12;;;;;;;17.88;16.30;;;17.20;67.10;;;;;;5071767;28;20054;-77
2023/07/03 06:34:39;;;;;;;20.10;16.77;;;17.10;66.60;;;;;;5076552;28;20398;-77
2023/07/03 06:37:05;;;;;;;18.35;16.45;;;17.30;68.30;;;;;;5089190;28;20032;-77
2023/07/03 06:39:37;;;;;;;20.48;18.40;;;17.40;66.60;;;;;;5090138;28;20039;-75
2023/07/03 06:42:04;;;;;;;18.83;15.45;;;17.40;66.40;;;;;;5069038;28;20027;-77
2023/07/03 06:44:29;;;;;;;17.80;15.98;;;17.40;66.60;;;;;;5053676;28;20149;-76
2023/07/03 06:46:56;;;;;;;17.55;15.65;;;17.70;65.60;;;;;;5054300;28;20044;-76
2023/07/03 06:49:24;;;;;;;17.67;15.98;;;17.80;66.60;;;;;;5072330;28;20063;-74
2023/07/03 06:51:51;;;;;;;16.73;14.95;;;17.80;65.50;;;;;;5072448;28;20036;-77
2023/07/03 06:54:16;;;;;;;18.30;16.33;;;17.80;66.80;;;;;;5073213;28;20081;-77
2023/07/03 06:56:42;;;;;;;18.63;15.70;;;17.90;65.00;;;;;;5072559;28;20426;-77
2023/07/03 06:59:08;;;;;;;18.67;16.83;;;18.00;66.50;;;;;;5088157;28;20032;-78
2023/07/03 07:01:34;;;;;;;18.20;16.40;;;18.00;64.20;;;;;;5079095;28;20036;-78
2023/07/03 07:03:59;;;;;;;18.45;16.65;;;18.10;64.50;;;;;;5071237;28;20118;-77
2023/07/03 07:06:28;;;;;;;17.73;15.90;;;18.20;64.90;;;;;;5075270;28;20032;-78
2023/07/03 07:08:54;;;;;;;17.23;15.65;;;18.10;64.00;;;;;;5070518;28;20025;-78
2023/07/03 07:11:23;;;;;;;23.67;15.38;;;18.20;64.70;;;;;;5070729;28;20206;-77
2023/07/03 07:13:50;;;;;;;18.20;16.40;;;18.10;64.00;;;;;;5088308;28;20060;-78
2023/07/03 07:16:22;;;;;;;18.20;16.50;;;18.30;64.00;;;;;;5073084;28;20089;-78
2023/07/03 07:18:51;;;;;;;18.55;16.90;;;18.60;62.80;;;;;;5077756;28;20032;-78
2023/07/03 07:21:17;;;;;;;19.55;17.80;;;18.70;61.90;;;;;;5072954;28;20410;-79
2023/07/03 07:23:45;;;;;;;17.88;16.10;;;18.90;62.10;;;;;;5070486;28;20495;-78
2023/07/03 07:26:11;;;;;;;22.67;20.50;;;19.10;62.60;;;;;;5056141;28;20060;-79
2023/07/03 07:28:36;;;;;;;19.63;17.92;;;19.00;61.00;;;;;;5052206;28;20063;-78
2023/07/03 07:31:02;;;;;;;19.38;17.83;;;19.30;61.50;;;;;;5084107;28;20079;-78
2023/07/03 07:33:28;;;;;;;19.88;18.13;;;19.40;62.70;;;;;;5071846;28;20040;-79
2023/07/03 07:35:53;;;;;;;19.92;18.13;;;19.10;60.20;;;;;;5072130;28;20471;-74
2023/07/03 07:38:21;;;;;;;22.80;20.55;;;19.20;59.90;;;;;;5071834;28;20033;-75
2023/07/03 07:40:48;;;;;;;20.70;18.90;;;19.00;58.80;;;;;;5052578;28;20119;-75
2023/07/03 07:43:14;;;;;;;19.85;18.15;;;19.20;59.10;;;;;;5071381;28;20086;-75
2023/07/03 07:45:40;;;;;;;20.17;18.63;;;19.40;59.30;;;;;;5086678;28;20037;-75
2023/07/03 07:48:07;;;;;;;22.17;20.27;;;19.40;58.50;;;;;;5069403;28;20374;-75
2023/07/03 07:50:36;;;;;;;19.75;18.10;;;19.50;57.80;;;;;;5075917;28;20028;-75
2023/07/03 07:53:02;;;;;;;20.87;19.30;;;19.60;58.90;;;;;;5075293;28;20024;-75
2023/07/03 07:55:28;;;;;;;20.80;19.15;;;19.40;56.20;;;;;;5057832;28;20028;-75
2023/07/03 07:57:54;;;;;;;19.58;17.85;;;19.20;56.80;;;;;;5036817;28;20029;-74
2023/07/03 08:00:20;;;;;;;19.67;18.08;;;19.10;59.30;;;;;;5075869;28;20047;-75
2023/07/03 08:02:45;;;;;;;23.70;21.70;;;19.10;58.90;;;;;;5071255;28;20039;-75
2023/07/03 08:05:11;;;;;;;23.10;20.85;;;19.40;61.50;;;;;;5054414;28;20536;-74
2023/07/03 08:07:37;;;;;;;32.83;30.55;;;19.30;56.70;;;;;;5085921;28;20608;-74
2023/07/03 08:10:03;;;;;;;19.60;17.65;;;19.10;55.20;;;;;;5051112;28;20490;-77
2023/07/03 08:12:28;;;;;;;19.73;18.23;;;18.90;56.60;;;;;;5051456;28;20517;-74
2023/07/03 08:14:54;;;;;;;21.35;19.17;;;18.90;55.90;;;;;;5052902;28;20120;-74
2023/07/03 08:17:20;;;;;;;19.30;17.35;;;19.10;58.80;;;;;;5073031;28;20071;-74
2023/07/03 08:19:45;;;;;;;20.17;18.10;;;19.10;55.50;;;;;;5075308;28;20035;-75
2023/07/03 08:22:11;;;;;;;23.25;21.05;;;19.30;55.20;;;;;;5085253;28;20036;-75
2023/07/03 08:24:37;;;;;;;22.48;20.70;;;19.60;56.30;;;;;;5073658;28;20032;-75
2023/07/03 08:27:02;;;;;;;71.35;66.28;;;19.90;55.80;;;;;;5072322;28;20032;-74
2023/07/03 08:29:28;;;;;;;24.33;22.38;;;20.10;52.20;;;;;;5057688;28;20153;-74
2023/07/03 08:31:54;;;;;;;21.70;19.60;;;20.70;54.00;;;;;;5085681;28;20115;-74
2023/07/03 08:34:19;;;;;;;20.40;16.95;;;21.30;52.50;;;;;;5074357;28;20107;-75
2023/07/03 08:36:45;;;;;;;73.82;70.40;;;21.30;52.20;;;;;;5073876;28;20032;-75
2023/07/03 08:39:10;;;;;;;86.07;81.93;;;21.40;49.70;;;;;;5086962;28;20032;-76
2023/07/03 08:41:44;;;;;;;72.65;69.18;;;21.70;49.80;;;;;;5071656;28;20532;-75
2023/07/03 08:44:11;;;;;;;24.20;22.30;;;21.60;49.00;;;;;;5070109;28;20032;-73
2023/07/03 08:46:38;;;;;;;70.20;66.30;;;22.00;52.50;;;;;;5070646;28;20064;-72
2023/07/03 08:49:06;;;;;;;77.57;73.72;;;21.80;49.10;;;;;;5056646;28;20029;-72
2023/07/03 08:51:37;;;;;;;79.32;75.72;;;22.20;47.70;;;;;;5073574;28;20490;-72
2023/07/03 08:54:28;;;;;;;78.97;75.47;;;22.20;49.30;;;;;;5068157;28;20493;-72
2023/07/03 08:56:56;;;;;;;87.13;82.78;;;22.10;47.50;;;;;;5066146;28;20037;-72
2023/07/03 08:59:22;;;;;;;92.05;87.47;;;22.20;46.70;;;;;;5074956;28;20316;-72
2023/07/03 09:02:18;;;;;;;88.20;83.97;;;22.40;46.20;;;;;;5077402;28;20061;-72
2023/07/03 09:05:02;;;;;;;160.75;154.20;;;22.50;46.40;;;;;;5073939;28;20035;-72
2023/07/03 09:07:56;;;;;;;87.25;83.05;;;21.90;46.10;;;;;;5074902;28;20032;-73
2023/07/03 09:10:43;;;;;;;101.05;96.55;;;21.70;47.70;;;;;;5075876;28;20032;-73
2023/07/03 09:13:23;;;;;;;183.32;176.18;;;21.40;47.40;;;;;;5075841;28;20078;-73
2023/07/03 09:15:55;;;;;;;248.18;237.70;;;21.40;47.20;;;;;;5070278;28;20089;-73
2023/07/03 09:18:26;;;;;;;300.27;287.30;;;21.40;47.40;;;;;;5075731;28;20491;-74
2023/07/03 09:20:52;;;;;;;127.90;122.65;;;21.30;48.20;;;;;;5073460;28;20033;-73
2023/07/03 09:24:02;;;;;;;242.15;231.82;;;21.60;47.50;;;;;;5073214;28;20056;-73
2023/07/03 09:26:50;;;;;;;291.50;280.37;;;21.60;47.20;;;;;;5050426;28;20051;-73
2023/07/03 09:29:16;;;;;;;296.80;285.27;;;21.70;46.60;;;;;;5073077;28;20029;-73
2023/07/03 09:31:41;;;;;;;314.75;302.10;;;21.60;47.90;;;;;;5074718;28;20081;-73
2023/07/03 09:34:08;;;;;;;248.45;238.68;;;21.70;46.70;;;;;;5060461;28;20437;-73
2023/07/03 09:36:37;;;;;;;260.98;250.80;;;22.00;48.20;;;;;;5077873;28;20036;-73
2023/07/03 09:39:09;;;;;;;248.50;238.75;;;21.70;47.80;;;;;;5074277;28;20043;-73
2023/07/03 09:41:36;;;;;;;310.02;297.42;;;21.70;46.60;;;;;;5078223;28;20050;-73
2023/07/03 09:44:13;;;;;;;272.67;262.00;;;21.60;48.10;;;;;;5073570;28;20039;-73
2023/07/03 09:46:40;;;;;;;261.52;251.65;;;21.40;48.30;;;;;;5077179;28;20031;-73
2023/07/03 09:49:14;;;;;;;169.15;162.32;;;21.40;48.10;;;;;;5079148;28;20028;-73
2023/07/03 09:51:39;;;;;;;236.93;227.77;;;21.50;49.80;;;;;;5074259;28;20040;-73
2023/07/03 09:54:20;;;;;;;218.60;210.23;;;21.50;47.80;;;;;;5075130;28;20401;-73
2023/07/03 09:56:46;;;;;;;245.45;235.95;;;21.50;49.10;;;;;;5074862;28;20174;-73
2023/07/03 09:59:14;;;;;;;254.07;244.05;;;21.70;47.30;;;;;;5073103;28;20051;-73
2023/07/03 10:01:39;;;;;;;181.63;174.40;;;21.60;47.80;;;;;;5080319;28;20053;-73
2023/07/03 10:04:09;;;;;;;176.57;169.70;;;21.70;48.20;;;;;;5073864;28;20041;-73
2023/07/03 10:06:36;;;;;;;265.27;254.50;;;21.70;49.60;;;;;;5058061;28;20031;-73
2023/07/03 10:09:15;;;;;;;295.52;283.70;;;22.00;46.80;;;;;;5078768;28;20028;-73
2023/07/03 10:11:49;;;;;;;292.02;280.25;;;22.20;47.30;;;;;;5075991;28;20111;-73
2023/07/03 10:14:27;;;;;;;173.52;166.30;;;22.30;48.10;;;;;;5072563;28;20140;-72
2023/07/03 10:16:53;;;;;;;345.85;332.05;;;22.60;46.90;;;;;;5074845;28;20033;-73
2023/07/03 10:19:20;;;;;;;389.50;373.55;;;22.80;45.20;;;;;;5078192;28;20036;-71
2023/07/03 10:21:48;;;;;;;384.15;368.45;;;22.70;45.20;;;;;;5077513;28;20024;-71
2023/07/03 10:24:15;;;;;;;476.35;455.75;;;22.70;45.20;;;;;;5074300;28;20057;-72
2023/07/03 10:26:53;;;;;;;341.15;327.38;;;22.50;44.30;;;;;;5094086;28;20545;-71
2023/07/03 10:29:39;;;;;;;397.95;381.52;;;22.20;46.40;;;;;;5079899;28;20387;-71
2023/07/03 10:32:17;;;;;;;388.83;371.92;;;21.90;46.90;;;;;;5083961;28;20043;-71
2023/07/03 10:34:46;;;;;;;413.38;393.23;;;21.80;45.70;;;;;;5077390;28;20039;-72
2023/07/03 10:37:17;;;;;;;414.33;396.58;;;21.40;46.70;;;;;;5073063;28;20108;-72
2023/07/03 10:40:09;;;;;;;475.27;453.65;;;21.40;47.00;;;;;;5059238;28;20036;-72
2023/07/03 10:42:42;;;;;;;434.75;415.50;;;21.50;46.00;;;;;;5072395;28;20027;-72
2023/07/03 10:45:12;;;;;;;415.25;397.90;;;21.70;45.50;;;;;;5078080;28;20032;-72
2023/07/03 10:47:47;;;;;;;445.77;426.95;;;21.80;45.60;;;;;;5074984;28;20028;-72
2023/07/03 10:50:14;;;;;;;378.00;362.08;;;21.70;45.70;;;;;;5087089;28;20024;-72
2023/07/03 10:52:58;;;;;;;301.15;289.38;;;21.60;48.30;;;;;;5075286;28;20112;-73
2023/07/03 10:55:48;;;;;;;261.38;250.50;;;21.80;48.50;;;;;;5073986;28;20058;-73
2023/07/03 10:58:26;;;;;;;284.75;273.52;;;21.50;47.20;;;;;;5082034;28;20502;-73
2023/07/03 11:01:11;;;;;;;331.05;317.70;;;21.30;48.70;;;;;;5073480;28;20111;-73
2023/07/03 11:03:55;;;;;;;248.82;238.50;;;21.20;47.90;;;;;;5071214;28;20041;-73
2023/07/03 11:06:57;;;;;;;317.88;305.42;;;21.20;49.30;;;;;;5060833;28;20028;-75
2023/07/03 11:09:38;;;;;;;174.25;167.05;;;21.30;48.30;;;;;;5070847;28;20017;-77
2023/07/03 11:12:21;;;;;;;275.63;265.10;;;21.30;48.20;;;;;;5091385;28;20094;-76
2023/07/03 11:14:55;;;;;;;290.23;278.70;;;21.30;48.10;;;;;;5076598;28;20044;-77
2023/07/03 11:17:46;;;;;;;263.70;253.10;;;21.20;48.90;;;;;;5073974;28;20028;-77
2023/07/03 11:20:28;;;;;;;403.95;380.88;;;21.60;50.20;;;;;;5068723;28;20028;-76
2023/07/03 11:23:25;;;;;;;352.13;337.80;;;22.00;47.60;;;;;;5074130;28;20044;-76
2023/07/03 11:26:27;;;;;;;270.73;259.38;;;22.70;44.90;;;;;;5074377;28;20028;-76
2023/07/03 11:28:55;;;;;;;391.88;375.90;;;23.30;45.20;;;;;;5039646;28;20062;-77
2023/07/03 11:31:25;;;;;;;510.05;487.13;;;23.30;44.90;;;;;;5076104;28;20032;-77
2023/07/03 11:33:51;;;;;;;;;;;23.00;43.40;;;;;;5074176;28;20029;-77
2023/07/03 11:36:39;;;;;;;272.58;262.00;;;23.10;45.40;;;;;;5070398;28;19912;-77
2023/07/03 11:39:24;;;;;;;521.33;495.13;;;22.90;46.40;;;;;;5077577;28;20112;-77
2023/07/03 11:42:02;;;;;;;333.98;320.48;;;22.30;43.30;;;;;;5070912;28;20068;-77
2023/07/03 11:44:27;;;;;;;508.50;484.33;;;22.60;46.90;;;;;;5078437;28;20032;-77
2023/07/03 11:47:04;;;;;;;596.85;566.83;;;22.90;43.80;;;;;;5072955;28;20021;-76
2023/07/03 11:49:32;;;;;;;403.73;387.10;;;23.20;42.30;;;;;;5057770;28;20031;-77
2023/07/03 11:52:01;;;;;;;461.98;442.17;;;23.50;42.30;;;;;;5055087;28;20032;-77
2023/07/03 11:54:28;;;;;;;523.95;500.00;;;23.90;42.20;;;;;;5069648;28;20660;-77
2023/07/03 11:57:28;;;;;;;609.22;578.63;;;23.90;40.90;;;;;;5055443;28;20123;-77
2023/07/03 12:00:17;;;;;;;498.65;476.23;;;23.90;41.80;;;;;;5031622;28;20443;-77
2023/07/03 12:03:05;;;;;;;474.45;453.33;;;24.60;40.50;;;;;;5068558;28;20032;-77
2023/07/03 12:05:43;;;;;;;1554.78;801.97;;;24.90;39.70;;;;;;5070183;28;20121;-77
2023/07/03 12:08:17;;;;;;;391.13;370.83;;;23.90;40.80;;;;;;5070658;28;20056;-77
2023/07/03 12:10:49;;;;;;;520.53;494.70;;;24.00;40.60;;;;;;5069929;28;20024;-77
2023/07/03 12:13:40;;;;;;;383.27;362.77;;;23.80;39.90;;;;;;5072801;28;20059;-77
2023/07/03 12:16:21;;;;;;;1591.47;836.38;;;23.80;41.40;;;;;;5077421;28;20028;-74
2023/07/03 12:18:56;;;;;;;1999.90;999.90;;;23.70;40.00;;;;;;5071494;28;20041;-77
2023/07/03 12:21:22;;;;;;;1999.90;999.90;;;23.70;39.20;;;;;;5086226;28;20487;-77
2023/07/03 12:23:48;;;;;;;432.25;408.95;;;24.20;39.60;;;;;;5076109;28;20321;-77
2023/07/03 12:26:16;;;;;;;305.85;288.38;;;24.40;38.50;;;;;;5052637;28;20028;-77
2023/07/03 12:28:42;;;;;;;1533.30;781.22;;;24.40;40.50;;;;;;5073705;28;20044;-77
2023/07/03 12:31:20;;;;;;;1564.10;810.20;;;23.90;39.60;;;;;;5055556;28;20032;-74
2023/07/03 12:33:49;;;;;;;1999.90;999.90;;;23.60;40.00;;;;;;5071871;28;20059;-74